Webster, Kentucky
Current Conditions -  °F | °C
As of 12:58 PM on Friday 21 Nov 2014 (Local Time) from KFTK Reporting Station
Clear Clear  
Wind Chill: 34°   Ceiling: Unl
Heat Index: 39°   Visibility: 10mi
Dew Point: 14°   Wind: 6mph
Humidity: 37%   Direction: 80°E
Pressure: 30.43"   Gusts: NA
Location:  37.89°N, 86.34°W
Report Text: KFTK 211858Z AUTO 08005KT 10SM CLR 04/M10 A3043 RMK AO2 SLP316 T00371099
Loading
Personal Weather Stations






























Interactive Weather Map New forecast layout! Learn more

10-Day Weather Forecast

Advertisements
Track Severe Weather on mobile